Historique des mesures à Cassis (13260), France
Quotidien Résumé Fevrier 26, 2017 Unités:  US    Métrique   Métrique/US
« Précédent (Jour)
Suivant (Jour) »
Quotidien Hebdomadaire Mensuel Annuel Période au choix
  Maximum: Minimum: Moyenne:
Température: 32 °F 45.3 °F 50.9 °F
Point de rosée: 32 °F 35.4 °F 40.5 °F
Humidité: Humidity % 55 % 64 %
Vitesse du vent: WindSpeedKMH mph 0.0 mph 0.5 mph
Rafales: WindSpeedGustKMH mph - -
Vent:- - SSW
Pression: 0 in 29.9 in -
Précipitations: 0 in    
Historical Graphs
 
 
Mesures pour : Fevrier 26, 2017
Heure Temperature Point de rosée Pression Vent Vitesse du vent Rafales Humidité Pluie (par heure) Conditions
32 °F 32 °F 0 in Calm     Humidity % 0 in SoftwareType W/m2
00:10 48.6 °F 35.4 °F 30.1 in Calm     60 % 0 in open2300-1.11 W/m2
01:11 47.5 °F 35.4 °F 30.1 in Calm     63 % 0 in open2300-1.11 W/m2
02:10 47.1 °F 36.3 °F 30.1 in Calm   2.1 mph 66 % 0 in open2300-1.11 W/m2
03:11 46.6 °F 36.7 °F 30.1 in Calm     68 % 0 in open2300-1.11 W/m2
04:10 46.2 °F 37.4 °F 30.1 in Calm     71 % 0 in open2300-1.11 W/m2
05:11 46 °F 37.9 °F 30.1 in Calm     73 % 0 in open2300-1.11 W/m2
06:10 45.3 °F 37.2 °F 30.1 in Calm     73 % 0 in open2300-1.11 W/m2
07:11 45.3 °F 37.8 °F 30.1 in Calm     75 % 0 in open2300-1.11 W/m2
08:10 46 °F 38.1 °F 30.1 in Calm     74 % 0 in open2300-1.11 W/m2
09:11 49.6 °F 39.9 °F 30.1 in Calm     69 % 0 in open2300-1.11 W/m2
10:10 52.7 °F 40.5 °F 30.1 in Calm     63 % 0 in open2300-1.11 W/m2
11:11 56.1 °F 43.2 °F 30.1 in Calm     62 % 0 in open2300-1.11 W/m2
12:10 58.3 °F 43.5 °F 30.1 in Calm     58 % 0 in open2300-1.11 W/m2
13:11 58.8 °F 43.2 °F 30 in SW 6.4 mph 7.2 mph 56 % 0 in open2300-1.11 W/m2
14:10 58.6 °F 42.4 °F 30 in South 4.3 mph 4.3 mph 55 % 0 in open2300-1.11 W/m2
15:11 58.8 °F 44.1 °F 30 in Calm   9.7 mph 58 % 0 in open2300-1.11 W/m2
16:10 58.8 °F 45.9 °F 30 in Calm     62 % 0 in open2300-1.11 W/m2
17:11 58.8 °F 46.2 °F 29.9 in South 2.6 mph 2.6 mph 63 % 0 in open2300-1.11 W/m2
18:10 57 °F 45.3 °F 29.9 in Calm     65 % 0 in open2300-1.11 W/m2
19:11 53.4 °F 43.2 °F 30 in Calm     68 % 0 in open2300-1.11 W/m2
20:10 51.4 °F 42.4 °F 30 in Calm     71 % 0 in open2300-1.11 W/m2
21:11 50.2 °F 42.3 °F 30 in Calm     74 % 0 in open2300-1.11 W/m2
22:10 49.6 °F 42.1 °F 30 in Calm     75 % 0 in open2300-1.11 W/m2
23:11 49.5 °F 42.3 °F 30 in Calm     76 % 0 in open2300-1.11 W/m2
Observations météo à CASSIS
WU-History script by Weather Underground - 1 mb